createdAt,value
2017-10-15T00:01:30.412Z,25.30
2017-10-15T00:03:58.761Z,23.33
2017-10-15T00:06:26.733Z,32.87
2017-10-15T00:08:54.314Z,23.33
2017-10-15T00:11:22.698Z,42.63
2017-10-15T00:13:51.063Z,33.87
2017-10-15T00:16:19.438Z,43.27
2017-10-15T00:18:47.109Z,36.10
2017-10-15T00:21:15.468Z,30.83
2017-10-15T00:23:44.105Z,33.03
2017-10-15T00:26:11.690Z,35.97
2017-10-15T00:28:39.262Z,36.67
2017-10-15T00:31:07.132Z,31.27
2017-10-15T00:33:34.729Z,43.67
2017-10-15T00:36:03.090Z,30.07
2017-10-15T00:38:31.446Z,39.80
2017-10-15T00:40:59.454Z,41.07
2017-10-15T00:43:27.047Z,52.67
2017-10-15T00:45:54.642Z,66.17
2017-10-15T00:48:22.261Z,42.80
2017-10-15T00:50:49.890Z,59.93
2017-10-15T00:53:18.261Z,49.50
2017-10-15T00:55:46.589Z,40.97
2017-10-15T00:58:14.402Z,39.23
2017-10-15T01:00:42.751Z,37.67
2017-10-15T01:03:10.338Z,46.20
2017-10-15T01:05:38.704Z,42.57
2017-10-15T01:08:07.053Z,37.47
2017-10-15T01:10:34.657Z,44.13
2017-10-15T01:13:02.998Z,31.60
2017-10-15T01:15:31.197Z,40.33
2017-10-15T01:17:58.775Z,42.03
2017-10-15T01:20:27.161Z,38.53
2017-10-15T01:22:54.789Z,52.87
2017-10-15T01:25:22.374Z,31.03
2017-10-15T01:27:50.725Z,47.47
2017-10-15T01:30:18.306Z,54.43
2017-10-15T01:32:46.931Z,37.23
2017-10-15T01:35:14.533Z,42.77
2017-10-15T01:37:42.130Z,33.27
2017-10-15T01:40:09.725Z,35.17
2017-10-15T01:42:37.317Z,43.50
2017-10-15T01:45:04.963Z,35.23
2017-10-15T01:47:32.554Z,33.80
2017-10-15T01:50:01.187Z,50.80
2017-10-15T01:52:28.758Z,37.67
2017-10-15T01:54:56.360Z,30.70
2017-10-15T01:57:24.722Z,36.20
2017-10-15T01:59:52.330Z,34.93
2017-10-15T02:02:19.975Z,36.40
2017-10-15T02:04:47.608Z,43.53
2017-10-15T02:07:16.237Z,43.83
2017-10-15T02:09:43.839Z,41.47
2017-10-15T02:12:11.433Z,50.97
2017-10-15T02:14:39.325Z,70.20
2017-10-15T02:17:06.910Z,46.90
2017-10-15T02:19:34.501Z,52.60
2017-10-15T02:22:02.851Z,50.00
2017-10-15T02:24:30.713Z,43.50
2017-10-15T02:26:58.313Z,43.97
2017-10-15T02:29:25.871Z,44.17
2017-10-15T02:31:54.335Z,72.60
2017-10-15T02:34:22.688Z,77.30
2017-10-15T02:36:50.312Z,76.10
2017-10-15T02:39:17.885Z,61.93
2017-10-15T02:41:45.477Z,60.90
2017-10-15T02:44:13.093Z,65.83
2017-10-15T02:46:40.684Z,135.10
2017-10-15T02:49:08.274Z,62.20
2017-10-15T02:51:36.632Z,63.83
2017-10-15T02:54:04.267Z,78.90
2017-10-15T02:56:31.853Z,43.80
2017-10-15T02:58:59.807Z,63.67
2017-10-15T03:01:27.411Z,49.40
2017-10-15T03:03:55.018Z,41.03
2017-10-15T03:06:22.637Z,37.90
2017-10-15T03:08:50.979Z,36.30
2017-10-15T03:11:18.573Z,52.37
2017-10-15T03:13:46.252Z,29.90
2017-10-15T03:16:14.101Z,34.73
2017-10-15T03:18:42.439Z,25.20
2017-10-15T03:21:10.028Z,30.50
2017-10-15T03:23:38.435Z,32.63
2017-10-15T03:26:06.018Z,34.33
2017-10-15T03:28:33.638Z,32.20
2017-10-15T03:31:01.232Z,27.50
2017-10-15T03:33:29.097Z,32.07
2017-10-15T03:35:56.669Z,35.27
2017-10-15T03:38:24.255Z,33.93
2017-10-15T03:40:51.830Z,33.90
2017-10-15T03:43:20.231Z,36.30
2017-10-15T03:45:47.809Z,52.53
2017-10-15T03:48:15.382Z,57.10
2017-10-15T03:50:43.246Z,47.17
2017-10-15T03:53:10.874Z,46.03
2017-10-15T03:55:38.480Z,53.03
2017-10-15T03:58:06.103Z,88.83
2017-10-15T04:00:33.709Z,67.47
2017-10-15T04:03:01.318Z,49.23
2017-10-15T04:05:28.914Z,71.47
2017-10-15T04:07:56.785Z,43.13
2017-10-15T04:10:24.425Z,38.57
2017-10-15T04:12:52.013Z,34.43
2017-10-15T04:15:19.616Z,29.10
2017-10-15T04:17:47.209Z,28.90
2017-10-15T04:20:14.825Z,25.60
2017-10-15T04:22:43.171Z,27.67
2017-10-15T04:25:11.027Z,30.80
2017-10-15T04:27:38.642Z,37.53
2017-10-15T04:30:06.371Z,27.47
2017-10-15T04:32:34.733Z,29.20
2017-10-15T04:35:02.316Z,34.63
2017-10-15T04:37:30.697Z,48.97
2017-10-15T04:39:59.053Z,40.77
2017-10-15T04:42:27.009Z,43.57
2017-10-15T04:44:54.607Z,50.23
2017-10-15T04:47:22.961Z,44.83
2017-10-15T04:49:50.601Z,42.33
2017-10-15T04:52:18.271Z,68.53
2017-10-15T04:54:45.874Z,51.57
2017-10-15T04:57:14.218Z,74.43
2017-10-15T04:59:42.170Z,66.83
2017-10-15T05:02:09.804Z,44.90
2017-10-15T05:04:37.377Z,45.37
2017-10-15T05:07:04.974Z,35.23
2017-10-15T05:09:32.614Z,38.97
2017-10-15T05:12:00.457Z,56.47
2017-10-15T05:14:28.036Z,53.50
2017-10-15T05:16:55.630Z,85.43
2017-10-15T05:19:23.285Z,84.37
2017-10-15T05:21:50.866Z,93.07
2017-10-15T05:24:18.477Z,63.07
2017-10-15T05:26:46.094Z,59.57
2017-10-15T05:29:13.955Z,70.60
2017-10-15T05:31:42.301Z,62.30
2017-10-15T05:34:09.919Z,51.00
2017-10-15T05:36:37.520Z,42.97
2017-10-15T05:39:05.519Z,56.17
2017-10-15T05:41:33.862Z,39.00
2017-10-15T05:44:01.437Z,32.77
2017-10-15T05:46:29.046Z,34.93
2017-10-15T05:48:56.666Z,39.20
2017-10-15T05:51:25.157Z,46.80
2017-10-15T05:53:53.514Z,35.40
2017-10-15T05:56:21.134Z,56.43
2017-10-15T05:58:48.718Z,33.30
2017-10-15T06:01:16.330Z,26.77
2017-10-15T06:03:43.910Z,37.27
2017-10-15T06:06:11.794Z,49.73
2017-10-15T06:08:39.432Z,37.93
2017-10-15T06:11:07.034Z,59.90
2017-10-15T06:13:34.651Z,46.93
2017-10-15T06:16:02.257Z,45.40
2017-10-15T06:18:29.870Z,47.90
2017-10-15T06:20:57.438Z,50.90
2017-10-15T06:23:25.430Z,49.93
2017-10-15T06:25:53.073Z,44.70
2017-10-15T06:28:21.417Z,34.30
2017-10-15T06:30:49.037Z,37.77
2017-10-15T06:33:16.661Z,38.13
2017-10-15T06:35:45.022Z,40.33
2017-10-15T06:38:12.608Z,33.50
2017-10-15T06:40:40.214Z,31.00
2017-10-15T06:43:07.785Z,43.23
2017-10-15T06:45:36.725Z,39.73
2017-10-15T06:48:04.437Z,35.50
2017-10-15T06:50:32.799Z,26.80
2017-10-15T06:53:00.413Z,31.50
2017-10-15T06:55:27.961Z,23.73
2017-10-15T06:57:55.631Z,24.33
2017-10-15T07:00:23.203Z,40.50
2017-10-15T07:02:51.079Z,35.03
2017-10-15T07:05:18.718Z,28.03
2017-10-15T07:07:46.298Z,29.83
2017-10-15T07:10:13.911Z,15.67
2017-10-15T07:12:42.283Z,46.67
2017-10-15T07:15:10.671Z,30.00
2017-10-15T07:17:39.035Z,22.53
2017-10-15T07:20:06.634Z,26.03
2017-10-15T07:22:34.231Z,52.40
2017-10-15T07:25:01.894Z,28.37
2017-10-15T07:27:29.469Z,79.50
2017-10-15T07:29:58.092Z,20.03
2017-10-15T07:32:25.670Z,16.90
2017-10-15T07:34:53.215Z,59.67
2017-10-15T07:37:20.834Z,37.77
2017-10-15T07:39:49.190Z,18.17
2017-10-15T07:42:17.110Z,29.50
2017-10-15T07:44:44.721Z,32.80
2017-10-15T07:47:12.670Z,23.83
2017-10-15T07:49:40.255Z,17.50
2017-10-15T07:52:07.837Z,31.37
2017-10-15T07:54:36.576Z,18.90
2017-10-15T07:57:04.219Z,16.60
2017-10-15T07:59:31.807Z,39.80
2017-10-15T08:01:59.421Z,26.93
2017-10-15T08:04:27.036Z,20.47
2017-10-15T08:06:54.643Z,13.20
2017-10-15T08:09:22.255Z,19.47
2017-10-15T08:11:50.205Z,17.67
2017-10-15T08:14:17.818Z,14.23
2017-10-15T08:16:46.173Z,15.23
2017-10-15T08:19:13.795Z,12.93
2017-10-15T08:21:41.414Z,10.97
2017-10-15T08:24:09.817Z,12.27
2017-10-15T08:26:37.409Z,12.33
2017-10-15T08:29:05.267Z,11.73
2017-10-15T08:31:32.846Z,12.80
2017-10-15T08:34:00.504Z,9.57
2017-10-15T08:36:28.129Z,12.53
2017-10-15T08:38:55.724Z,9.50
2017-10-15T08:41:23.882Z,8.33
2017-10-15T08:43:51.490Z,8.00
2017-10-15T08:46:19.875Z,8.40
2017-10-15T08:48:48.269Z,10.47
2017-10-15T08:51:15.850Z,7.27
2017-10-15T08:53:43.540Z,8.80
2017-10-15T08:56:11.120Z,8.50
2017-10-15T08:58:39.486Z,8.50
2017-10-15T09:01:07.082Z,7.07
2017-10-15T09:03:34.965Z,7.13
2017-10-15T09:06:02.557Z,7.07
2017-10-15T09:08:30.284Z,7.53
2017-10-15T09:10:57.902Z,7.40
2017-10-15T09:13:26.320Z,7.67
2017-10-15T09:15:54.197Z,8.50
2017-10-15T09:18:21.774Z,7.10
2017-10-15T09:20:49.318Z,7.20
2017-10-15T09:23:17.275Z,11.60
2017-10-15T09:25:44.860Z,7.23
2017-10-15T09:28:12.744Z,6.70
2017-10-15T09:30:40.342Z,7.77
2017-10-15T09:33:07.956Z,6.97
2017-10-15T09:35:35.581Z,8.83
2017-10-15T09:38:03.199Z,7.80
2017-10-15T09:40:31.898Z,5.97
2017-10-15T09:43:00.326Z,8.10
2017-10-15T09:45:28.172Z,5.80
2017-10-15T09:47:55.766Z,9.53
2017-10-15T09:50:23.402Z,5.85
2017-10-15T09:52:51.040Z,10.32
2017-10-15T09:55:18.634Z,5.68
2017-10-15T09:57:46.546Z,14.48
2017-10-15T10:00:14.909Z,5.90
2017-10-15T10:02:42.556Z,5.95
2017-10-15T10:05:10.171Z,8.05
2017-10-15T10:07:37.761Z,6.18
2017-10-15T10:10:05.375Z,7.22
2017-10-15T10:12:33.722Z,10.93
2017-10-15T10:15:01.664Z,6.22
2017-10-15T10:17:29.264Z,7.70
2017-10-15T10:19:56.964Z,9.13
2017-10-15T10:22:25.029Z,10.52
2017-10-15T10:24:52.651Z,9.00
2017-10-15T10:27:20.275Z,9.85
2017-10-15T10:29:47.882Z,10.80
2017-10-15T10:32:15.855Z,9.13
2017-10-15T10:34:44.227Z,10.60
2017-10-15T10:37:12.615Z,7.77
2017-10-15T10:39:40.259Z,10.60
2017-10-15T10:42:08.005Z,9.70
2017-10-15T10:44:35.597Z,10.07
2017-10-15T10:47:04.827Z,13.40
2017-10-15T10:49:32.693Z,10.70
2017-10-15T10:52:00.307Z,18.47
2017-10-15T10:54:27.913Z,7.67
2017-10-15T10:56:55.532Z,11.80
2017-10-15T10:59:23.120Z,9.17
2017-10-15T11:01:50.853Z,10.07
2017-10-15T11:04:18.457Z,16.27
2017-10-15T11:06:46.075Z,13.17
2017-10-15T11:09:14.444Z,8.20
2017-10-15T11:11:42.479Z,14.80
2017-10-15T11:14:10.888Z,12.47
2017-10-15T11:16:38.511Z,11.00
2017-10-15T11:19:06.111Z,7.80
2017-10-15T11:21:33.718Z,11.97
2017-10-15T11:24:01.313Z,9.37
2017-10-15T11:26:28.901Z,10.57
2017-10-15T11:28:56.845Z,16.87
2017-10-15T11:31:24.470Z,11.97
2017-10-15T11:33:52.076Z,12.63
2017-10-15T11:36:19.704Z,10.60
2017-10-15T11:38:47.323Z,17.23
2017-10-15T11:41:14.916Z,16.20
2017-10-15T11:43:43.291Z,19.10
2017-10-15T11:46:11.221Z,12.17
2017-10-15T11:48:39.642Z,15.50
2017-10-15T11:51:07.241Z,9.07
2017-10-15T11:53:34.865Z,10.63
2017-10-15T11:56:02.482Z,13.93
2017-10-15T11:58:30.085Z,17.43
2017-10-15T12:00:58.257Z,14.63
2017-10-15T12:03:26.160Z,7.73
2017-10-15T12:05:53.780Z,10.30
2017-10-15T12:08:21.356Z,7.50
2017-10-15T12:10:49.009Z,10.60
2017-10-15T12:13:16.623Z,10.50
2017-10-15T12:15:44.578Z,9.07
2017-10-15T12:18:12.259Z,11.40
2017-10-15T12:20:40.668Z,13.07
2017-10-15T12:23:09.015Z,11.37
2017-10-15T12:25:37.390Z,13.03
2017-10-15T12:28:06.158Z,9.03
2017-10-15T12:30:33.769Z,6.43
2017-10-15T12:33:01.358Z,8.67
2017-10-15T12:35:28.946Z,10.20
2017-10-15T12:37:56.576Z,10.33
2017-10-15T12:40:24.154Z,8.43
2017-10-15T12:42:51.722Z,9.07
2017-10-15T12:45:19.662Z,12.37
2017-10-15T12:47:47.299Z,8.63
2017-10-15T12:50:14.967Z,12.90
2017-10-15T12:52:42.589Z,11.63
2017-10-15T12:55:10.966Z,14.40
2017-10-15T12:57:39.338Z,14.80
2017-10-15T13:00:06.960Z,11.90
2017-10-15T13:02:34.825Z,8.67
2017-10-15T13:05:03.233Z,7.07
2017-10-15T13:07:30.846Z,10.37
2017-10-15T13:09:58.448Z,7.67
2017-10-15T13:12:26.079Z,7.43
2017-10-15T13:14:53.696Z,7.77
2017-10-15T13:17:22.080Z,9.37
2017-10-15T13:19:50.821Z,13.57
2017-10-15T13:22:19.366Z,13.40
2017-10-15T13:24:47.041Z,9.20
2017-10-15T13:27:14.734Z,7.03
2017-10-15T13:29:42.355Z,14.90
2017-10-15T13:32:09.979Z,12.87
2017-10-15T13:34:38.323Z,6.73
2017-10-15T13:37:05.960Z,8.53
2017-10-15T13:39:33.559Z,6.97
2017-10-15T13:42:01.234Z,7.60
2017-10-15T13:44:28.850Z,14.60
2017-10-15T13:46:56.445Z,17.00
2017-10-15T13:49:24.009Z,10.20
2017-10-15T13:51:52.005Z,13.23
2017-10-15T13:54:19.634Z,11.73
2017-10-15T13:56:47.226Z,12.17
2017-10-15T13:59:15.582Z,6.80
2017-10-15T14:01:43.968Z,12.30
2017-10-15T14:04:12.391Z,11.57
2017-10-15T14:06:39.978Z,8.83
2017-10-15T14:09:07.923Z,9.90
2017-10-15T14:11:35.513Z,13.10
2017-10-15T14:14:03.331Z,8.93
2017-10-15T14:16:30.941Z,16.30
2017-10-15T14:18:58.531Z,13.77
2017-10-15T14:21:27.279Z,7.87
2017-10-15T14:23:54.905Z,16.07
2017-10-15T14:26:22.503Z,11.53
2017-10-15T14:28:50.106Z,17.53
2017-10-15T14:31:17.844Z,11.37
2017-10-15T14:33:45.435Z,9.70
2017-10-15T14:36:13.020Z,12.93
2017-10-15T14:38:40.712Z,11.27
2017-10-15T14:41:08.297Z,12.33
2017-10-15T14:43:36.915Z,14.17
2017-10-15T14:46:04.512Z,20.90
2017-10-15T14:48:34.172Z,13.93
2017-10-15T14:51:02.501Z,12.77
2017-10-15T14:53:30.135Z,9.80
2017-10-15T14:55:57.798Z,13.70
2017-10-15T14:58:25.619Z,10.00
2017-10-15T15:00:54.494Z,9.23
2017-10-15T15:03:22.900Z,12.07
2017-10-15T15:05:50.510Z,10.63
2017-10-15T15:08:18.158Z,10.83
2017-10-15T15:10:45.759Z,17.17
2017-10-15T15:13:14.540Z,14.50
2017-10-15T15:15:42.939Z,11.20
2017-10-15T15:18:10.551Z,10.37
2017-10-15T15:20:38.159Z,12.50
2017-10-15T15:23:06.543Z,12.80
2017-10-15T15:25:34.153Z,14.10
2017-10-15T15:28:01.757Z,13.37
2017-10-15T15:30:30.177Z,17.13
2017-10-15T15:32:57.785Z,17.53
2017-10-15T15:35:26.542Z,21.23
2017-10-15T15:37:54.195Z,11.77
2017-10-15T15:40:34.850Z,13.43
2017-10-15T15:43:02.535Z,11.73
2017-10-15T15:45:31.173Z,15.33
2017-10-15T15:47:58.789Z,11.63
2017-10-15T15:50:26.445Z,14.50
2017-10-15T15:52:54.111Z,13.07
2017-10-15T15:55:21.753Z,12.13
2017-10-15T15:57:49.657Z,17.50
2017-10-15T16:00:18.048Z,13.70
2017-10-15T16:02:45.787Z,16.43
2017-10-15T16:05:13.530Z,13.57
2017-10-15T16:07:41.198Z,13.10
2017-10-15T16:10:08.866Z,12.90
2017-10-15T16:12:36.524Z,17.73
2017-10-15T16:15:04.447Z,22.87
2017-10-15T16:17:32.105Z,22.57
2017-10-15T16:19:59.745Z,26.43
2017-10-15T16:22:28.291Z,16.40
2017-10-15T16:24:55.916Z,18.23
2017-10-15T16:27:23.654Z,18.40
2017-10-15T16:29:51.279Z,19.17
2017-10-15T16:32:19.244Z,16.13
2017-10-15T16:34:46.874Z,16.33
2017-10-15T16:37:14.506Z,20.13
2017-10-15T16:39:42.142Z,20.80
2017-10-15T16:42:10.626Z,18.03
2017-10-15T16:44:38.298Z,17.43
2017-10-15T16:47:07.564Z,15.47
2017-10-15T16:49:36.286Z,13.50
2017-10-15T16:52:04.684Z,16.40
2017-10-15T16:54:32.555Z,29.43
2017-10-15T16:57:01.188Z,20.37
2017-10-15T16:59:28.998Z,19.17
2017-10-15T17:01:56.709Z,22.80
2017-10-15T17:04:24.463Z,21.03
2017-10-15T17:06:52.523Z,22.30
2017-10-15T17:09:20.324Z,25.47
2017-10-15T17:11:48.004Z,19.27
2017-10-15T17:14:16.404Z,21.73
2017-10-15T17:16:44.397Z,22.97
2017-10-15T17:19:12.178Z,24.43
2017-10-15T17:21:40.368Z,21.30
2017-10-15T17:24:08.400Z,18.07
2017-10-15T17:26:36.057Z,36.77
2017-10-15T17:29:04.312Z,18.20
2017-10-15T17:31:32.137Z,29.07
2017-10-15T17:33:59.735Z,20.43
2017-10-15T17:36:27.584Z,19.90
2017-10-15T17:38:56.001Z,19.93
2017-10-15T17:41:23.728Z,23.73
2017-10-15T17:43:53.047Z,26.77
2017-10-15T17:46:20.713Z,31.80
2017-10-15T17:48:52.307Z,25.00
2017-10-15T17:51:35.199Z,22.90
2017-10-15T17:54:04.541Z,32.93
2017-10-15T17:56:32.574Z,29.60
2017-10-15T17:59:00.979Z,21.63
2017-10-15T18:01:32.230Z,27.07
2017-10-15T18:04:02.368Z,23.03
2017-10-15T18:06:30.820Z,19.83
2017-10-15T18:08:58.418Z,27.73
2017-10-15T18:13:59.755Z,18.07
2017-10-15T18:16:27.413Z,27.97
2017-10-15T18:18:55.047Z,27.37
2017-10-15T18:21:22.652Z,20.93
2017-10-15T18:23:50.296Z,26.77
2017-10-15T18:26:17.890Z,26.83
2017-10-15T18:28:53.156Z,26.83
2017-10-15T18:31:20.774Z,29.03
2017-10-15T18:33:49.134Z,27.03
2017-10-15T18:36:16.855Z,27.83
2017-10-15T18:38:44.440Z,26.17
2017-10-15T18:41:16.250Z,34.57
2017-10-15T18:43:43.815Z,28.63
2017-10-15T18:46:11.423Z,37.60
2017-10-15T18:48:39.176Z,31.33
2017-10-15T18:51:06.970Z,25.57
2017-10-15T18:53:34.602Z,26.87
2017-10-15T18:56:02.199Z,32.57
2017-10-15T18:58:30.210Z,27.30
2017-10-15T19:00:57.891Z,27.57
2017-10-15T19:03:25.605Z,27.70
2017-10-15T19:05:54.016Z,29.43
2017-10-15T19:08:21.722Z,28.57
2017-10-15T19:10:49.663Z,26.57
2017-10-15T19:13:17.365Z,22.10
2017-10-15T19:15:45.110Z,27.40
2017-10-15T19:18:12.785Z,34.67
2017-10-15T19:20:40.473Z,28.47
2017-10-15T19:23:08.594Z,31.40
2017-10-15T19:25:36.181Z,37.10
2017-10-15T19:28:04.533Z,26.93
2017-10-15T19:30:33.773Z,42.97
2017-10-15T19:33:01.601Z,29.70
2017-10-15T19:35:29.216Z,28.03
2017-10-15T19:37:56.847Z,30.73
2017-10-15T19:40:24.771Z,29.37
2017-10-15T19:42:52.512Z,28.37
2017-10-15T19:45:20.100Z,33.53
2017-10-15T19:47:47.695Z,33.53
2017-10-15T19:50:15.362Z,25.47
2017-10-15T19:52:43.051Z,22.83
2017-10-15T19:55:10.705Z,27.20
2017-10-15T19:57:39.114Z,24.00
2017-10-15T20:00:06.788Z,26.97
2017-10-15T20:02:34.380Z,27.07
2017-10-15T20:05:03.049Z,34.00
2017-10-15T20:07:30.950Z,27.90
2017-10-15T20:09:58.638Z,23.30
2017-10-15T20:12:26.269Z,26.10
2017-10-15T20:14:54.618Z,27.87
2017-10-15T20:17:22.529Z,26.00
2017-10-15T20:19:50.182Z,24.43
2017-10-15T20:22:18.116Z,23.20
2017-10-15T20:24:45.740Z,26.17
2017-10-15T20:27:13.374Z,30.17
2017-10-15T20:29:41.031Z,28.00
2017-10-15T20:32:08.654Z,34.63
2017-10-15T20:34:36.545Z,26.87
2017-10-15T20:37:04.203Z,25.00
2017-10-15T20:39:32.180Z,27.73
2017-10-15T20:41:59.762Z,28.07
2017-10-15T20:44:27.361Z,25.93
2017-10-15T20:46:55.770Z,34.73
2017-10-15T20:49:23.383Z,28.43
2017-10-15T20:51:51.620Z,39.93
2017-10-15T20:54:19.225Z,29.83
2017-10-15T20:56:46.929Z,36.77
2017-10-15T20:59:15.370Z,32.67
2017-10-15T21:01:43.034Z,33.53
2017-10-15T21:04:10.649Z,38.13
2017-10-15T21:06:38.261Z,40.63
2017-10-15T21:09:05.895Z,24.07
2017-10-15T21:11:33.545Z,27.07
2017-10-15T21:14:01.172Z,26.80
2017-10-15T21:16:28.852Z,28.90
2017-10-15T21:18:56.472Z,30.20
2017-10-15T21:21:24.076Z,26.97
2017-10-15T21:23:51.739Z,26.40
2017-10-15T21:26:19.324Z,34.37
2017-10-15T21:28:46.934Z,26.80
2017-10-15T21:31:14.570Z,27.70
2017-10-15T21:33:42.196Z,31.10
2017-10-15T21:36:09.781Z,22.90
2017-10-15T21:38:37.398Z,29.07
2017-10-15T21:41:05.051Z,27.53
2017-10-15T21:43:33.559Z,28.80
2017-10-15T21:46:01.166Z,29.33
2017-10-15T21:48:28.770Z,27.93
2017-10-15T21:50:56.782Z,26.30
2017-10-15T21:53:24.378Z,33.37
2017-10-15T21:55:52.010Z,27.00
2017-10-15T21:58:19.613Z,33.00
2017-10-15T22:00:47.192Z,39.50
2017-10-15T22:03:14.814Z,31.73
2017-10-15T22:05:43.158Z,26.17
2017-10-15T22:08:10.743Z,22.33
2017-10-15T22:10:39.151Z,26.63
2017-10-15T22:13:06.753Z,23.60
2017-10-15T22:15:34.355Z,24.30
2017-10-15T22:18:02.711Z,27.13
2017-10-15T22:23:32.234Z,30.60
2017-10-15T22:25:59.846Z,33.77
2017-10-15T22:28:27.431Z,30.40
2017-10-15T22:30:55.034Z,30.00
2017-10-15T22:33:23.380Z,30.03
2017-10-15T22:35:51.016Z,28.00
2017-10-15T22:38:18.608Z,30.33
2017-10-15T22:40:46.223Z,28.17
2017-10-15T22:43:13.852Z,36.77
2017-10-15T22:45:42.276Z,33.90
2017-10-15T22:48:09.894Z,35.23
2017-10-15T22:50:38.255Z,29.97
2017-10-15T22:53:05.874Z,25.20
2017-10-15T22:55:33.470Z,30.33
2017-10-15T22:58:01.626Z,26.53
2017-10-15T23:00:29.254Z,27.67
2017-10-15T23:02:56.838Z,33.67
2017-10-15T23:05:24.470Z,30.17
2017-10-15T23:07:52.110Z,26.03
2017-10-15T23:10:20.470Z,28.23
2017-10-15T23:12:48.089Z,29.10
2017-10-15T23:15:15.658Z,27.60
2017-10-15T23:17:43.345Z,24.60
2017-10-15T23:20:10.949Z,24.30
2017-10-15T23:22:38.553Z,35.57
2017-10-15T23:25:06.138Z,28.97
2017-10-15T23:27:34.505Z,27.57
2017-10-15T23:30:02.079Z,31.80
2017-10-15T23:32:30.627Z,30.30
2017-10-15T23:34:58.198Z,38.20
2017-10-15T23:37:25.825Z,38.97
2017-10-15T23:39:53.451Z,37.30
2017-10-15T23:42:21.838Z,37.13
2017-10-15T23:44:49.456Z,28.37
2017-10-15T23:47:17.059Z,29.13
2017-10-15T23:49:44.662Z,26.67
2017-10-15T23:52:12.230Z,27.97
2017-10-15T23:54:40.194Z,27.57
2017-10-15T23:57:07.769Z,28.50
2017-10-15T23:59:35.359Z,26.73
